Time;durP1;ratioP1;P1;durP2;ratioP2;P2;SDS_P1;SDS_P2;PMS_P1;PMS_P2;Temp;Humidity;BMP_temperature;BMP_pressure;BME280_temperature;BME280_humidity;BME280_pressure;Samples;Min_cycle;Max_cycle;Signal;HPM_P1;HPM_P2
2022/03/25 00:00:14;;;;;;;;;;;;;;;12.08;33.20;101628.25;5061451;28;20019;-81
2022/03/25 00:02:59;;;;;;;;;;;;;;;12.16;33.45;101627.53;5045653;28;19913;-81
2022/03/25 00:05:44;;;;;;;;;;;;;;;11.70;33.07;101610.41;5050978;28;19916;-81
2022/03/25 00:08:29;;;;;;;;;;;;;;;11.40;34.21;101622.66;5063758;28;19912;-81
2022/03/25 00:11:14;;;;;;;;;;;;;;;11.11;34.02;101622.84;5050621;28;20564;-81
2022/03/25 00:13:59;;;;;;;;;;;;;;;11.20;34.25;101620.25;5048353;28;19913;-81
2022/03/25 00:16:44;;;;;;;;;;;;;;;11.61;33.57;101628.56;5048180;28;19917;-81
2022/03/25 00:19:28;;;;;;;;;;;;;;;11.20;34.12;101622.97;5051312;28;19916;-80
2022/03/25 00:22:12;;;;;;;;;;;;;;;11.11;34.31;101623.66;5059316;28;19917;-81
2022/03/25 00:24:56;;;;;;;;;;;;;;;11.19;34.08;101618.63;5062372;28;20016;-81
2022/03/25 00:27:41;;;;;;;;;;;;;;;10.89;34.08;101615.28;5056754;28;19912;-80
2022/03/25 00:30:25;;;;;;;;;;;;;;;11.26;33.68;101617.16;5057422;28;19913;-81
2022/03/25 00:33:10;;;;;;;;;;;;;;;11.50;33.50;101622.47;5058830;28;19913;-81
2022/03/25 00:35:56;;;;;;;;;;;;;;;11.32;33.97;101623.34;5057747;28;19913;-80
2022/03/25 00:38:41;;;;;;;;;;;;;;;11.31;33.88;101619.81;5055414;28;19917;-81
2022/03/25 00:41:25;;;;;;;;;;;;;;;11.01;34.97;101618.38;5058784;28;19912;-81
2022/03/25 00:44:10;;;;;;;;;;;;;;;11.07;34.77;101625.34;5059058;28;19913;-81
2022/03/25 00:46:56;;;;;;;;;;;;;;;11.32;34.00;101609.72;5057008;28;19913;-81
2022/03/25 00:49:40;;;;;;;;;;;;;;;11.61;33.20;101620.38;5061005;28;20328;-81
2022/03/25 00:52:26;;;;;;;;;;;;;;;10.82;34.92;101608.63;5056836;28;20415;-81
2022/03/25 00:55:12;;;;;;;;;;;;;;;10.12;36.23;101608.41;5057214;28;19916;-82
2022/03/25 00:57:58;;;;;;;;;;;;;;;10.11;35.97;101610.31;5057331;28;19916;-82
2022/03/25 01:00:42;;;;;;;;;;;;;;;10.52;35.41;101599.75;5059943;28;19913;-82
2022/03/25 01:03:27;;;;;;;;;;;;;;;10.58;35.19;101595.06;5049929;28;19912;-81
2022/03/25 01:06:11;;;;;;;;;;;;;;;10.26;35.93;101598.47;5058148;28;19913;-81
2022/03/25 01:08:58;;;;;;;;;;;;;;;10.33;36.39;101598.13;5059773;28;19912;-81
2022/03/25 01:11:44;;;;;;;;;;;;;;;10.67;35.52;101596.03;5058564;28;19916;-82
2022/03/25 01:14:30;;;;;;;;;;;;;;;10.81;34.61;101594.22;5058214;28;20401;-82
2022/03/25 01:17:15;;;;;;;;;;;;;;;10.44;35.28;101588.75;5057101;28;19916;-81
2022/03/25 01:20:00;;;;;;;;;;;;;;;10.17;35.44;101590.16;5038492;28;19913;-81
2022/03/25 01:22:44;;;;;;;;;;;;;;;10.22;35.57;101587.38;5037525;28;19913;-81
2022/03/25 01:25:29;;;;;;;;;;;;;;;10.28;35.68;101585.41;5039346;28;19913;-81
2022/03/25 01:28:14;;;;;;;;;;;;;;;10.34;35.26;101583.44;5058723;28;20116;-82
2022/03/25 01:30:59;;;;;;;;;;;;;;;9.89;36.94;101580.16;5057887;28;19912;-81
2022/03/25 01:33:43;;;;;;;;;;;;;;;10.37;36.46;101580.13;5057201;28;19912;-81
2022/03/25 01:36:29;;;;;;;;;;;;;;;10.34;36.83;101578.00;5058220;28;20329;-81
2022/03/25 01:39:13;;;;;;;;;;;;;;;9.76;37.84;101573.50;5061532;28;19920;-81
2022/03/25 01:41:57;;;;;;;;;;;;;;;10.20;38.33;101567.06;5057381;28;19912;-81
2022/03/25 01:44:42;;;;;;;;;;;;;;;10.45;36.88;101574.06;5057282;28;19912;-81
2022/03/25 01:47:28;;;;;;;;;;;;;;;10.48;36.00;101574.28;5057314;28;20293;-81
2022/03/25 01:50:18;;;;;;;;;;;;;;;10.14;36.97;101573.63;5056886;28;19912;-82
2022/03/25 01:53:08;;;;;;;;;;;;;;;10.54;36.97;101572.28;5057039;28;19912;-81
2022/03/25 01:55:56;;;;;;;;;;;;;;;10.20;36.47;101567.88;5057572;28;19916;-80
2022/03/25 01:58:40;;;;;;;;;;;;;;;10.05;37.19;101572.66;5059425;28;19916;-81
2022/03/25 02:01:26;;;;;;;;;;;;;;;10.07;36.95;101563.09;5057047;28;19913;-81
2022/03/25 02:04:10;;;;;;;;;;;;;;;10.19;36.03;101563.53;5056024;28;19916;-81
2022/03/25 02:06:54;;;;;;;;;;;;;;;10.26;35.89;101557.72;5056918;28;19916;-81
2022/03/25 02:09:40;;;;;;;;;;;;;;;10.34;35.52;101558.97;5056711;28;19912;-81
2022/03/25 02:12:28;;;;;;;;;;;;;;;10.54;35.98;101562.22;5055662;28;19920;-81
2022/03/25 02:15:13;;;;;;;;;;;;;;;10.57;35.96;101560.81;5055644;28;20276;-81
2022/03/25 02:17:57;;;;;;;;;;;;;;;10.75;36.21;101561.91;5056396;28;19917;-81
2022/03/25 02:20:42;;;;;;;;;;;;;;;10.79;34.48;101565.66;5056392;28;20381;-81
2022/03/25 02:23:29;;;;;;;;;;;;;;;10.64;35.29;101567.50;5056580;28;19912;-81
2022/03/25 02:26:14;;;;;;;;;;;;;;;10.54;35.25;101566.84;5058391;28;19912;-81
2022/03/25 02:29:00;;;;;;;;;;;;;;;10.49;35.48;101567.72;5056396;28;19913;-80
2022/03/25 02:31:44;;;;;;;;;;;;;;;10.48;36.46;101565.31;5042735;28;19917;-80
2022/03/25 02:34:29;;;;;;;;;;;;;;;10.28;36.18;101567.19;5056200;28;19912;-80
2022/03/25 02:37:13;;;;;;;;;;;;;;;10.15;38.27;101567.91;5036991;28;19912;-80
2022/03/25 02:39:58;;;;;;;;;;;;;;;10.16;38.41;101566.81;5040625;28;20104;-80
2022/03/25 02:42:42;;;;;;;;;;;;;;;10.49;37.14;101569.66;5054401;28;19913;-82
2022/03/25 02:45:27;;;;;;;;;;;;;;;9.98;38.48;101575.72;5054817;28;19938;-81
2022/03/25 02:48:11;;;;;;;;;;;;;;;9.70;39.97;101566.50;5055967;28;19912;-81
2022/03/25 02:50:56;;;;;;;;;;;;;;;9.94;39.90;101561.09;5072302;28;19912;-81
2022/03/25 02:53:40;;;;;;;;;;;;;;;9.36;39.69;101563.88;5049605;28;19912;-81
2022/03/25 02:56:25;;;;;;;;;;;;;;;9.77;38.99;101563.44;5055756;28;19912;-81
2022/03/25 02:59:09;;;;;;;;;;;;;;;9.71;39.40;101564.59;5058516;28;19916;-81
2022/03/25 03:01:53;;;;;;;;;;;;;;;9.56;39.38;101565.56;5064821;28;19912;-81
2022/03/25 03:04:38;;;;;;;;;;;;;;;9.46;39.58;101562.97;5058041;28;19917;-80
2022/03/25 03:07:22;;;;;;;;;;;;;;;9.57;39.48;101564.47;5055908;28;19913;-81
2022/03/25 03:10:08;;;;;;;;;;;;;;;9.60;39.16;101557.69;5055770;28;19913;-81
2022/03/25 03:12:52;;;;;;;;;;;;;;;9.76;39.10;101561.81;5058434;28;20381;-81
2022/03/25 03:15:37;;;;;;;;;;;;;;;9.51;39.31;101570.25;5038721;28;19912;-81
2022/03/25 03:18:22;;;;;;;;;;;;;;;9.60;39.32;101566.59;5039198;28;19917;-81
2022/03/25 03:21:07;;;;;;;;;;;;;;;9.37;39.50;101565.50;5038160;28;19920;-81
2022/03/25 03:23:52;;;;;;;;;;;;;;;9.33;39.70;101559.03;5038754;28;19913;-80
2022/03/25 03:26:36;;;;;;;;;;;;;;;9.39;39.78;101562.50;5040367;28;19913;-80
2022/03/25 03:29:21;;;;;;;;;;;;;;;9.57;39.48;101561.78;5038595;28;19913;-81
2022/03/25 03:32:05;;;;;;;;;;;;;;;9.68;39.22;101567.91;5038877;28;19917;-80
2022/03/25 03:34:50;;;;;;;;;;;;;;;9.67;38.97;101567.09;5050080;28;19913;-80
2022/03/25 03:37:41;;;;;;;;;;;;;;;9.47;39.44;101561.88;5059157;28;19916;-81
2022/03/25 03:40:26;;;;;;;;;;;;;;;9.26;39.88;101571.31;5062709;28;19917;-80
2022/03/25 03:43:11;;;;;;;;;;;;;;;9.33;39.43;101574.50;5049618;28;19913;-80
2022/03/25 03:45:55;;;;;;;;;;;;;;;8.85;40.19;101570.81;5037845;28;19917;-80
2022/03/25 03:48:39;;;;;;;;;;;;;;;8.37;41.80;101565.19;5037997;28;19913;-81
2022/03/25 03:51:24;;;;;;;;;;;;;;;8.56;41.89;101570.75;5037766;28;19913;-80
2022/03/25 03:54:08;;;;;;;;;;;;;;;8.92;41.30;101564.00;5051827;28;19912;-81
2022/03/25 03:56:52;;;;;;;;;;;;;;;8.47;41.42;101567.03;5062100;28;19912;-80
2022/03/25 03:59:37;;;;;;;;;;;;;;;7.72;43.13;101571.63;5055234;28;19917;-81
2022/03/25 04:02:22;;;;;;;;;;;;;;;7.85;42.85;101575.66;5058328;28;20370;-81
2022/03/25 04:05:06;;;;;;;;;;;;;;;7.52;43.58;101577.06;5058919;28;20145;-81
2022/03/25 04:07:50;;;;;;;;;;;;;;;7.65;43.16;101580.03;5057955;28;20393;-81
2022/03/25 04:10:35;;;;;;;;;;;;;;;7.94;42.13;101585.63;5055074;28;19917;-80
2022/03/25 04:13:19;;;;;;;;;;;;;;;7.59;42.85;101583.84;5058255;28;19916;-81
2022/03/25 04:16:04;;;;;;;;;;;;;;;7.68;42.07;101584.91;5058746;28;19912;-80
2022/03/25 04:18:48;;;;;;;;;;;;;;;7.56;42.43;101589.81;5071296;28;19917;-80
2022/03/25 04:21:33;;;;;;;;;;;;;;;8.23;40.55;101583.06;5056793;28;20381;-80
2022/03/25 04:24:18;;;;;;;;;;;;;;;8.57;40.09;101586.75;5061890;28;19912;-81
2022/03/25 04:27:02;;;;;;;;;;;;;;;8.45;39.99;101585.44;5058118;28;19912;-81
2022/03/25 04:29:46;;;;;;;;;;;;;;;8.23;39.96;101587.72;5071168;28;19920;-80
2022/03/25 04:32:31;;;;;;;;;;;;;;;8.37;40.33;101595.00;5046409;28;19913;-82
2022/03/25 04:35:15;;;;;;;;;;;;;;;8.02;40.38;101601.34;5053931;28;19917;-80
2022/03/25 04:38:00;;;;;;;;;;;;;;;7.80;41.29;101594.63;5037673;28;20378;-80
2022/03/25 04:40:45;;;;;;;;;;;;;;;7.53;42.46;101594.94;5037074;28;19917;-80
2022/03/25 04:43:29;;;;;;;;;;;;;;;7.35;42.95;101600.94;5043284;28;19913;-81
2022/03/25 04:46:13;;;;;;;;;;;;;;;7.72;42.08;101602.22;5037530;28;20300;-81
2022/03/25 04:48:58;;;;;;;;;;;;;;;7.58;41.49;101606.56;5043801;28;19913;-80
2022/03/25 04:51:43;;;;;;;;;;;;;;;7.39;41.87;101602.81;5088598;22;19929;-81
2022/03/25 04:54:27;;;;;;;;;;;;;;;7.36;42.00;101614.19;5023412;28;20355;-81
2022/03/25 04:57:11;;;;;;;;;;;;;;;7.95;40.89;101617.06;5019291;28;19917;-80
2022/03/25 04:59:56;;;;;;;;;;;;;;;8.32;39.92;101618.59;5009010;28;19922;-81
2022/03/25 05:02:41;;;;;;;;;;;;;;;8.51;39.61;101623.09;5019982;28;20306;-81
2022/03/25 05:05:25;;;;;;;;;;;;;;;8.27;39.24;101632.94;5021900;28;20306;-80
2022/03/25 05:08:10;;;;;;;;;;;;;;;8.04;40.07;101628.13;5017416;28;19913;-80
2022/03/25 05:10:55;;;;;;;;;;;;;;;8.18;40.15;101640.81;5022325;28;19925;-80
2022/03/25 05:13:40;;;;;;;;;;;;;;;8.46;39.99;101635.84;5016881;28;19914;-80
2022/03/25 05:16:24;;;;;;;;;;;;;;;8.53;39.64;101631.75;5018263;28;19918;-80
2022/03/25 05:19:10;;;;;;;;;;;;;;;8.19;39.36;101630.78;5016247;28;19921;-80
2022/03/25 05:21:54;;;;;;;;;;;;;;;7.72;40.38;101639.28;5011005;28;19913;-80
2022/03/25 05:24:39;;;;;;;;;;;;;;;7.65;40.45;101646.91;5017641;28;19913;-81
2022/03/25 05:27:23;;;;;;;;;;;;;;;7.75;40.85;101641.47;5015250;28;20386;-81
2022/03/25 05:30:09;;;;;;;;;;;;;;;7.88;40.49;101656.31;5012872;28;19913;-80
2022/03/25 05:32:54;;;;;;;;;;;;;;;7.96;39.66;101662.00;5017132;28;19913;-81
2022/03/25 05:35:38;;;;;;;;;;;;;;;8.22;40.02;101662.75;4996662;28;19913;-81
2022/03/25 05:38:23;;;;;;;;;;;;;;;8.50;40.33;101670.25;5031285;28;20297;-81
2022/03/25 05:41:07;;;;;;;;;;;;;;;8.74;39.48;101664.16;5017168;28;19913;-81
2022/03/25 05:43:52;;;;;;;;;;;;;;;9.07;38.89;101668.88;5023572;28;19913;-81
2022/03/25 05:46:38;;;;;;;;;;;;;;;9.42;38.10;101667.78;5016497;28;19913;-80
2022/03/25 05:49:22;;;;;;;;;;;;;;;9.64;36.95;101667.34;5026660;28;19913;-81
2022/03/25 05:52:07;;;;;;;;;;;;;;;9.88;36.20;101677.16;5016444;28;19913;-81
2022/03/25 05:54:52;;;;;;;;;;;;;;;10.54;34.34;101678.34;5016895;28;19913;-81
2022/03/25 05:57:37;;;;;;;;;;;;;;;11.29;33.11;101679.19;5018313;28;20374;-81
2022/03/25 06:00:23;;;;;;;;;;;;;;;11.90;32.16;101691.81;5017234;28;19918;-80
2022/03/25 06:03:08;;;;;;;;;;;;;;;13.86;29.43;101683.16;5017301;28;19913;-80
2022/03/25 06:05:53;;;;;;;;;;;;;;;14.55;27.98;101683.44;5019304;28;19918;-80
2022/03/25 06:08:37;;;;;;;;;;;;;;;15.53;27.36;101683.72;5016884;28;19914;-81
2022/03/25 06:11:23;;;;;;;;;;;;;;;16.87;25.23;101696.75;5028584;28;19935;-81
2022/03/25 06:14:07;;;;;;;;;;;;;;;16.20;25.72;101697.56;5020246;28;19913;-80
2022/03/25 06:16:52;;;;;;;;;;;;;;;17.08;24.65;101702.25;5018887;28;19985;-80
2022/03/25 06:19:36;;;;;;;;;;;;;;;17.57;23.11;101697.81;5016988;28;19917;-81
2022/03/25 06:22:24;;;;;;;;;;;;;;;18.73;22.29;101703.75;5017964;28;19914;-81
2022/03/25 06:25:09;;;;;;;;;;;;;;;19.46;21.54;101703.59;5017188;28;19913;-80
2022/03/25 06:27:55;;;;;;;;;;;;;;;19.17;21.74;101703.88;5013417;28;19917;-80
2022/03/25 06:30:40;;;;;;;;;;;;;;;20.34;20.22;101712.66;5025970;28;19913;-79
2022/03/25 06:33:25;;;;;;;;;;;;;;;20.75;20.61;101706.53;5006803;28;19913;-79
2022/03/25 06:36:13;;;;;;;;;;;;;;;19.83;20.70;101714.44;5013121;28;19914;-78
2022/03/25 06:38:57;;;;;;;;;;;;;;;22.05;18.89;101723.47;5014971;28;19918;-78
2022/03/25 06:41:42;;;;;;;;;;;;;;;22.30;18.97;101718.41;5017355;28;19914;-79
2022/03/25 06:44:28;;;;;;;;;;;;;;;23.81;17.85;101718.94;5016963;28;19913;-79
2022/03/25 06:47:12;;;;;;;;;;;;;;;22.96;18.63;101715.06;5021405;28;20381;-84
2022/03/25 06:49:57;;;;;;;;;;;;;;;24.27;17.22;101727.75;5023852;28;19914;-83
2022/03/25 06:52:42;;;;;;;;;;;;;;;25.84;15.99;101733.84;5021083;28;19913;-84
2022/03/25 06:55:26;;;;;;;;;;;;;;;26.75;14.89;101731.50;5023530;28;19913;-85
2022/03/25 06:58:12;;;;;;;;;;;;;;;26.95;14.58;101731.91;5035987;28;19913;-84
2022/03/25 07:00:56;;;;;;;;;;;;;;;27.31;14.79;101727.00;5019230;28;19917;-82
2022/03/25 07:03:41;;;;;;;;;;;;;;;27.48;15.07;101728.94;5032879;28;19913;-82
2022/03/25 07:06:25;;;;;;;;;;;;;;;27.43;14.49;101732.91;5021173;28;19913;-82
2022/03/25 07:09:10;;;;;;;;;;;;;;;27.99;14.31;101731.81;5036672;28;20437;-83
2022/03/25 07:11:55;;;;;;;;;;;;;;;27.79;13.90;101727.97;5026454;28;19913;-83
2022/03/25 07:14:39;;;;;;;;;;;;;;;30.08;11.64;101743.63;5020489;28;19913;-82
2022/03/25 07:17:24;;;;;;;;;;;;;;;29.07;12.36;101736.09;5033894;28;20382;-80
2022/03/25 07:20:09;;;;;;;;;;;;;;;22.17;18.64;101729.66;5018067;28;19917;-83
2022/03/25 07:22:54;;;;;;;;;;;;;;;19.20;22.50;101725.25;5017592;28;19917;-85
2022/03/25 07:25:38;;;;;;;;;;;;;;;17.76;24.50;101722.09;5017568;28;19921;-83
2022/03/25 07:28:23;;;;;;;;;;;;;;;17.21;23.61;101719.63;5024823;28;20317;-83
2022/03/25 07:31:08;;;;;;;;;;;;;;;16.65;25.18;101721.78;5020602;28;19913;-83
2022/03/25 07:33:53;;;;;;;;;;;;;;;16.53;25.74;101727.13;5019932;28;19913;-84
2022/03/25 07:36:37;;;;;;;;;;;;;;;16.02;25.99;101720.72;5027313;28;19917;-83
2022/03/25 07:39:21;;;;;;;;;;;;;;;16.36;28.89;101724.44;5015757;28;20390;-83
2022/03/25 07:42:06;;;;;;;;;;;;;;;17.02;29.02;101725.56;5035644;28;19913;-86
2022/03/25 07:44:50;;;;;;;;;;;;;;;16.80;26.03;101734.94;5018349;28;19913;-84
2022/03/25 07:47:40;;;;;;;;;;;;;;;17.17;26.46;101730.47;5022726;28;20382;-84
2022/03/25 07:50:25;;;;;;;;;;;;;;;17.84;26.05;101729.44;5023781;28;19913;-85
2022/03/25 07:53:09;;;;;;;;;;;;;;;18.14;25.30;101733.63;5028896;28;19913;-85
2022/03/25 07:55:53;;;;;;;;;;;;;;;18.93;25.93;101724.06;5028343;28;19917;-86
2022/03/25 07:58:38;;;;;;;;;;;;;;;18.96;26.25;101726.09;5024128;28;19913;-85
2022/03/25 08:01:22;;;;;;;;;;;;;;;18.44;24.47;101731.50;5020021;28;19914;-84
2022/03/25 08:04:06;;;;;;;;;;;;;;;19.23;23.62;101732.84;5024221;28;20366;-84
2022/03/25 08:06:52;;;;;;;;;;;;;;;19.04;23.87;101732.66;5018863;28;19914;-84
2022/03/25 08:09:36;;;;;;;;;;;;;;;19.36;23.37;101731.63;5018486;28;19913;-84
2022/03/25 08:12:21;;;;;;;;;;;;;;;19.42;23.82;101732.19;5020465;28;19913;-86
2022/03/25 08:15:07;;;;;;;;;;;;;;;19.92;23.16;101739.94;5019720;28;20382;-84
2022/03/25 08:17:54;;;;;;;;;;;;;;;19.59;22.05;101735.50;5028805;28;20302;-87
2022/03/25 08:20:40;;;;;;;;;;;;;;;19.80;22.77;101742.78;5040219;28;19917;-81
2022/03/25 08:29:32;;;;;;;;;;;;;;;29.08;13.77;101748.09;5022272;28;19913;-83
2022/03/25 08:32:16;;;;;;;;;;;;;;;29.73;12.92;101756.13;5028420;28;19913;-82
2022/03/25 08:35:03;;;;;;;;;;;;;;;30.02;12.77;101750.16;5018091;28;19917;-82
2022/03/25 08:37:47;;;;;;;;;;;;;;;30.03;12.64;101754.53;5023233;28;19913;-83
2022/03/25 08:40:34;;;;;;;;;;;;;;;29.97;12.17;101756.25;5041320;28;20472;-83
2022/03/25 08:43:19;;;;;;;;;;;;;;;31.53;11.11;101759.06;5023149;28;19917;-83
2022/03/25 08:46:04;;;;;;;;;;;;;;;29.46;12.13;101758.06;5027422;28;19918;-84
2022/03/25 08:48:49;;;;;;;;;;;;;;;29.03;13.21;101754.97;5023001;28;19921;-83
2022/03/25 08:51:34;;;;;;;;;;;;;;;29.85;12.38;101754.75;5034643;28;19917;-83
2022/03/25 08:54:18;;;;;;;;;;;;;;;31.52;11.21;101757.47;5027703;28;19914;-84
2022/03/25 08:57:03;;;;;;;;;;;;;;;29.91;12.68;101757.91;5025321;28;20301;-82
2022/03/25 08:59:48;;;;;;;;;;;;;;;31.84;10.72;101754.78;5024639;28;19917;-84
2022/03/25 09:02:33;;;;;;;;;;;;;;;31.28;11.29;101762.41;5042705;28;20432;-87
2022/03/25 09:05:17;;;;;;;;;;;;;;;31.07;11.44;101760.81;5017236;28;19913;-87
2022/03/25 09:08:01;;;;;;;;;;;;;;;31.23;11.06;101758.09;5014068;28;19925;-85
2022/03/25 09:10:47;;;;;;;;;;;;;;;33.25;9.90;101738.31;5011881;28;20142;-89
2022/03/25 09:13:32;;;;;;;;;;;;;;;32.63;10.50;101751.66;5011437;28;19913;-82
2022/03/25 09:16:16;;;;;;;;;;;;;;;33.76;10.00;101756.16;5015140;28;19913;-83
2022/03/25 09:19:01;;;;;;;;;;;;;;;34.03;9.63;101756.53;5016663;28;19913;-84
2022/03/25 09:21:45;;;;;;;;;;;;;;;33.20;10.84;101753.78;5015812;28;19913;-82
2022/03/25 09:24:30;;;;;;;;;;;;;;;32.51;13.80;101760.84;5014850;28;19913;-84
2022/03/25 09:27:15;;;;;;;;;;;;;;;33.16;12.36;101755.91;5017565;28;19913;-86
2022/03/25 09:29:59;;;;;;;;;;;;;;;32.52;11.49;101751.13;5014702;28;19922;-84
2022/03/25 09:32:44;;;;;;;;;;;;;;;32.60;11.39;101758.19;5015997;28;19921;-84
2022/03/25 09:35:28;;;;;;;;;;;;;;;30.25;12.81;101747.38;5020004;28;19917;-84
2022/03/25 09:38:14;;;;;;;;;;;;;;;32.42;11.33;101746.56;5018405;28;19917;-84
2022/03/25 09:41:04;;;;;;;;;;;;;;;32.16;12.05;101735.13;5034115;28;19921;-83
2022/03/25 09:43:48;;;;;;;;;;;;;;;28.34;14.86;101732.81;5018072;28;19917;-82
2022/03/25 09:46:32;;;;;;;;;;;;;;;29.98;13.43;101735.34;5020120;28;19913;-82
2022/03/25 09:49:18;;;;;;;;;;;;;;;34.33;10.04;101747.47;5008448;28;19913;-83
2022/03/25 09:52:02;;;;;;;;;;;;;;;31.36;11.97;101733.69;5025625;28;19913;-84
2022/03/25 09:54:47;;;;;;;;;;;;;;;32.87;10.98;101736.13;5026037;28;19913;-83
2022/03/25 09:57:33;;;;;;;;;;;;;;;30.83;12.00;101736.75;5027900;28;19913;-84
2022/03/25 10:00:20;;;;;;;;;;;;;;;33.23;10.41;101729.50;5021737;28;19917;-83
2022/03/25 10:03:07;;;;;;;;;;;;;;;33.00;10.70;101731.34;4998737;28;19913;-85
2022/03/25 10:05:53;;;;;;;;;;;;;;;33.43;10.04;101722.44;5012976;28;19913;-84
2022/03/25 10:08:38;;;;;;;;;;;;;;;33.94;10.00;101720.47;5031987;28;19913;-84
2022/03/25 10:11:27;;;;;;;;;;;;;;;34.71;10.40;101727.59;5039466;28;19913;-82
2022/03/25 10:14:15;;;;;;;;;;;;;;;30.81;13.37;101716.72;5014841;28;20302;-82
2022/03/25 10:17:07;;;;;;;;;;;;;;;26.07;17.20;101715.94;5045978;28;19917;-83
2022/03/25 10:19:52;;;;;;;;;;;;;;;27.18;16.10;101713.47;5029340;28;19917;-84
2022/03/25 10:22:37;;;;;;;;;;;;;;;26.80;16.16;101711.56;5023022;28;19913;-83
2022/03/25 10:25:33;;;;;;;;;;;;;;;24.48;18.48;101702.88;5022175;28;19917;-83
2022/03/25 10:28:20;;;;;;;;;;;;;;;21.87;21.37;101706.53;5026092;28;19913;-82
2022/03/25 10:31:17;;;;;;;;;;;;;;;21.03;22.42;101705.59;5026205;28;19913;-82
2022/03/25 10:34:01;;;;;;;;;;;;;;;20.57;23.03;101704.53;5022725;28;19913;-80
2022/03/25 10:36:58;;;;;;;;;;;;;;;20.75;22.71;101705.75;5013105;28;20354;-81
2022/03/25 10:39:51;;;;;;;;;;;;;;;20.47;23.30;101700.34;5017624;28;19917;-81
2022/03/25 10:42:36;;;;;;;;;;;;;;;21.04;22.37;101696.09;5023713;28;19917;-81
2022/03/25 10:45:25;;;;;;;;;;;;;;;20.44;23.03;101693.56;5021238;28;19913;-81
2022/03/25 10:48:14;;;;;;;;;;;;;;;20.34;22.92;101696.06;5016314;28;19917;-80
2022/03/25 10:51:01;;;;;;;;;;;;;;;20.86;22.10;101695.72;5027893;28;19917;-80
2022/03/25 10:53:47;;;;;;;;;;;;;;;20.53;22.47;101687.03;5000757;28;19913;-83
2022/03/25 10:56:44;;;;;;;;;;;;;;;20.24;23.37;101689.09;5013053;28;20366;-83
2022/03/25 10:59:30;;;;;;;;;;;;;;;20.57;23.35;101682.44;5021476;28;19917;-82
2022/03/25 11:02:14;;;;;;;;;;;;;;;20.34;23.35;101685.03;5020816;28;19917;-83
2022/03/25 11:04:59;;;;;;;;;;;;;;;20.34;22.98;101680.31;5011932;28;19917;-82
2022/03/25 11:07:46;;;;;;;;;;;;;;;20.49;22.60;101682.25;5020784;28;19917;-84
2022/03/25 11:10:31;;;;;;;;;;;;;;;20.12;23.31;101680.88;5023053;28;19913;-83
2022/03/25 11:13:16;;;;;;;;;;;;;;;20.18;23.10;101676.72;5015669;28;19918;-84
2022/03/25 11:16:02;;;;;;;;;;;;;;;20.57;23.20;101671.38;5047457;23;20413;-78
2022/03/25 11:18:48;;;;;;;;;;;;;;;20.23;23.49;101678.41;5049611;28;19917;-82
2022/03/25 11:21:33;;;;;;;;;;;;;;;20.90;22.10;101672.53;5055882;28;19916;-81
2022/03/25 11:24:20;;;;;;;;;;;;;;;20.34;22.69;101657.41;5049317;28;19912;-80
2022/03/25 11:27:09;;;;;;;;;;;;;;;20.71;22.46;101666.97;5075197;28;20384;-81
2022/03/25 11:29:56;;;;;;;;;;;;;;;20.60;22.72;101659.59;5054950;28;19920;-81
2022/03/25 11:32:47;;;;;;;;;;;;;;;20.30;23.44;101646.25;5041986;28;19916;-80
2022/03/25 11:35:33;;;;;;;;;;;;;;;20.60;23.37;101654.06;5039284;28;19912;-82
2022/03/25 11:38:19;;;;;;;;;;;;;;;20.58;23.18;101645.31;5065728;28;20296;-80
2022/03/25 11:41:22;;;;;;;;;;;;;;;20.71;22.47;101641.28;5048595;28;19917;-81
2022/03/25 11:44:16;;;;;;;;;;;;;;;20.82;22.08;101634.03;5052349;28;19912;-82
2022/03/25 11:47:00;;;;;;;;;;;;;;;20.79;23.16;101635.53;5050552;28;19917;-80
2022/03/25 11:49:45;;;;;;;;;;;;;;;20.44;23.39;101632.78;5051986;28;19917;-82
2022/03/25 11:52:30;;;;;;;;;;;;;;;20.74;23.14;101624.75;5042157;28;19913;-81
2022/03/25 11:55:15;;;;;;;;;;;;;;;20.66;22.19;101631.31;5043586;28;19912;-77
2022/03/25 11:58:14;;;;;;;;;;;;;;;20.90;21.63;101627.47;5040089;28;19920;-80
2022/03/25 12:01:04;;;;;;;;;;;;;;;20.97;21.90;101619.34;5054938;28;20394;-79
2022/03/25 12:03:50;;;;;;;;;;;;;;;21.41;21.66;101617.06;5057763;28;19912;-81
2022/03/25 12:06:53;;;;;;;;;;;;;;;21.16;22.02;101616.59;5041945;28;19913;-79
2022/03/25 12:09:40;;;;;;;;;;;;;;;21.95;18.91;101607.75;5046986;28;19917;-81
2022/03/25 12:12:43;;;;;;;;;;;;;;;21.75;19.35;101604.22;5041290;28;19920;-81
2022/03/25 12:15:48;;;;;;;;;;;;;;;22.48;18.93;101600.28;5061826;28;19913;-78
2022/03/25 12:18:47;;;;;;;;;;;;;;;23.06;18.46;101597.88;5045122;28;19921;-81
2022/03/25 12:21:31;;;;;;;;;;;;;;;22.96;18.40;101590.22;5057171;28;19917;-81
2022/03/25 12:24:17;;;;;;;;;;;;;;;23.47;17.59;101595.97;5058274;28;19913;-81
2022/03/25 12:27:06;;;;;;;;;;;;;;;23.65;17.54;101593.38;5047084;28;19920;-79
2022/03/25 12:29:52;;;;;;;;;;;;;;;23.75;17.17;101582.38;5054437;28;19917;-81
2022/03/25 12:32:37;;;;;;;;;;;;;;;23.18;17.62;101586.53;5061923;28;19913;-82
2022/03/25 12:35:28;;;;;;;;;;;;;;;22.98;18.24;101585.09;5044237;28;19912;-80
2022/03/25 12:38:17;;;;;;;;;;;;;;;23.23;17.97;101577.06;5046448;28;19912;-79
2022/03/25 12:41:02;;;;;;;;;;;;;;;23.56;17.53;101568.72;5056599;28;19917;-80
2022/03/25 12:43:55;;;;;;;;;;;;;;;23.80;17.54;101572.88;5054219;28;19912;-81
2022/03/25 12:46:39;;;;;;;;;;;;;;;23.71;17.42;101567.66;5054500;28;19920;-81
2022/03/25 12:49:24;;;;;;;;;;;;;;;23.93;17.23;101559.47;5056420;28;19913;-81
2022/03/25 12:52:08;;;;;;;;;;;;;;;24.03;17.23;101558.75;5054892;28;20289;-80
2022/03/25 12:54:53;;;;;;;;;;;;;;;24.12;17.41;101550.88;5051692;28;19931;-79
2022/03/25 12:57:39;;;;;;;;;;;;;;;24.11;17.68;101546.50;5053865;28;19912;-79
2022/03/25 13:00:30;;;;;;;;;;;;;;;24.20;17.38;101549.78;5049909;28;19916;-80
2022/03/25 13:03:17;;;;;;;;;;;;;;;24.24;16.97;101543.03;5052238;28;19921;-79
2022/03/25 13:06:12;;;;;;;;;;;;;;;24.28;16.22;101540.28;5053474;28;19913;-80
2022/03/25 13:09:00;;;;;;;;;;;;;;;24.16;16.43;101529.47;5039816;28;19912;-78
2022/03/25 13:11:51;;;;;;;;;;;;;;;24.12;16.71;101529.47;5053782;28;19913;-79
2022/03/25 13:14:35;;;;;;;;;;;;;;;24.27;16.22;101530.38;5054955;28;19913;-79
2022/03/25 13:17:33;;;;;;;;;;;;;;;24.35;15.82;101525.63;5051294;28;19916;-81
2022/03/25 13:20:23;;;;;;;;;;;;;;;24.00;16.33;101520.63;5054880;28;19917;-80
2022/03/25 13:23:09;;;;;;;;;;;;;;;24.09;16.17;101519.09;5040170;28;19913;-78
2022/03/25 13:25:59;;;;;;;;;;;;;;;24.03;16.94;101515.09;5052966;28;19913;-79
2022/03/25 13:28:45;;;;;;;;;;;;;;;24.17;16.08;101515.22;5053130;28;19912;-83
2022/03/25 13:31:30;;;;;;;;;;;;;;;24.08;16.01;101509.16;5049663;28;20377;-83
2022/03/25 13:34:17;;;;;;;;;;;;;;;23.98;16.22;101500.75;5048956;28;20372;-78
2022/03/25 13:37:02;;;;;;;;;;;;;;;24.10;16.02;101500.44;5047810;28;19913;-79
2022/03/25 13:39:46;;;;;;;;;;;;;;;24.21;16.38;101501.34;5059436;28;19912;-78
2022/03/25 13:42:31;;;;;;;;;;;;;;;24.08;16.33;101495.25;5060168;28;19912;-78
2022/03/25 13:45:18;;;;;;;;;;;;;;;24.10;16.32;101494.88;5042188;28;20011;-84
2022/03/25 13:48:05;;;;;;;;;;;;;;;23.94;16.30;101488.81;5042212;28;19913;-81
2022/03/25 13:50:51;;;;;;;;;;;;;;;24.09;16.38;101491.31;5051372;28;20333;-82
2022/03/25 13:53:37;;;;;;;;;;;;;;;24.50;16.80;101485.56;5033390;28;20385;-82
2022/03/25 13:56:23;;;;;;;;;;;;;;;24.62;15.86;101479.66;5044583;28;20289;-81
2022/03/25 13:59:23;;;;;;;;;;;;;;;24.25;15.33;101482.69;5037628;28;19917;-82
2022/03/25 14:02:26;;;;;;;;;;;;;;;23.92;15.93;101475.34;5051808;28;19916;-81
2022/03/25 14:05:14;;;;;;;;;;;;;;;23.65;15.57;101469.19;5047686;28;19921;-78
2022/03/25 14:07:59;;;;;;;;;;;;;;;23.59;15.40;101462.41;5042527;28;19913;-77
2022/03/25 14:10:49;;;;;;;;;;;;;;;23.43;15.71;101459.06;5034652;28;19913;-79
2022/03/25 14:13:34;;;;;;;;;;;;;;;23.35;15.43;101461.00;5051480;28;20300;-80
2022/03/25 14:16:19;;;;;;;;;;;;;;;23.35;16.04;101468.53;5049037;28;19912;-77
2022/03/25 14:19:03;;;;;;;;;;;;;;;23.30;15.31;101463.34;5047367;28;19913;-77